RJSI METAR and TAF | Updated Today

RJSI METAR

Hanamaki Airport

Observation time: 60 min. ago

RJSI 080600Z 35012KT 9999 FEW020 SCT040 BKN110 09/05 Q1023

Need help? Read our tutorial on how to read METARs or read the parsed version below.

Hanamaki Airport (RJSI) METAR

  • Weather conditions on Wed, 08 Dec 2021 06:00:00 +0000 (60 min. ago):
  • Present conditions: Dry
  • Clouds: A few at 610 meters; scattered at 1219 meters; broken sky at 3353 meters
  • Visibility: Greater than 10 km
  • Wind: 350 degrees at 12 knots
  • Temperature: 9 celsius
  • Dew point: 5 celsius
  • Pressure: 1023 millibars
  • Remarks: None


Useful to know...

RJSI TAF

Hanamaki Airport

TAF RJSI 080507Z 0806/0912 01010KT 9999 FEW020 SCT040
Observation time: 1:53 hr. ago
Need help? Read our tutorial on how to read TAFs or read the parsed version below.

Parsed version of TAF for Hanamaki Airport (RJSI)

  • From 08 December at 06:00 UTC, to day 09 of the month at 12:00 UTC
  • Clouds: A few at 610 meters; scattered at 1219 meters
  • Visibility: Greater than 10 km
  • Wind: 10 degrees at 10

Airports near RJSI

No airports found within 100nm radius.